sensor_id;sensor_type;location;lat;lon;timestamp;P1;durP1;ratioP1;P2;durP2;ratioP2
64633;SDS011;51043;52.406;9.690;2023-09-07T00:00:58;7.90;;;3.50;;
64633;SDS011;51043;52.406;9.690;2023-09-07T00:03:27;5.43;;;4.03;;
64633;SDS011;51043;52.406;9.690;2023-09-07T00:05:56;6.07;;;3.92;;
64633;SDS011;51043;52.406;9.690;2023-09-07T00:08:25;7.35;;;3.97;;
64633;SDS011;51043;52.406;9.690;2023-09-07T00:10:53;7.78;;;4.00;;
64633;SDS011;51043;52.406;9.690;2023-09-07T00:13:24;8.40;;;3.90;;
64633;SDS011;51043;52.406;9.690;2023-09-07T00:15:57;7.55;;;4.15;;
64633;SDS011;51043;52.406;9.690;2023-09-07T00:18:30;8.43;;;4.03;;
64633;SDS011;51043;52.406;9.690;2023-09-07T00:20:59;9.77;;;4.00;;
64633;SDS011;51043;52.406;9.690;2023-09-07T00:23:30;4.32;;;3.90;;
64633;SDS011;51043;52.406;9.690;2023-09-07T00:26:04;12.07;;;3.80;;
64633;SDS011;51043;52.406;9.690;2023-09-07T00:28:32;8.05;;;3.83;;
64633;SDS011;51043;52.406;9.690;2023-09-07T00:31:05;7.38;;;3.97;;
64633;SDS011;51043;52.406;9.690;2023-09-07T00:33:39;9.90;;;4.35;;
64633;SDS011;51043;52.406;9.690;2023-09-07T00:36:09;6.80;;;4.45;;
64633;SDS011;51043;52.406;9.690;2023-09-07T00:38:40;7.50;;;4.43;;
64633;SDS011;51043;52.406;9.690;2023-09-07T00:41:08;5.15;;;4.40;;
64633;SDS011;51043;52.406;9.690;2023-09-07T00:43:37;6.20;;;4.10;;
64633;SDS011;51043;52.406;9.690;2023-09-07T00:46:10;9.77;;;4.38;;
64633;SDS011;51043;52.406;9.690;2023-09-07T00:48:39;7.05;;;4.40;;
64633;SDS011;51043;52.406;9.690;2023-09-07T00:51:11;9.52;;;4.80;;
64633;SDS011;51043;52.406;9.690;2023-09-07T00:53:40;6.43;;;4.22;;
64633;SDS011;51043;52.406;9.690;2023-09-07T00:56:09;9.10;;;4.50;;
64633;SDS011;51043;52.406;9.690;2023-09-07T00:58:42;6.93;;;4.55;;
64633;SDS011;51043;52.406;9.690;2023-09-07T01:01:12;6.00;;;4.70;;
64633;SDS011;51043;52.406;9.690;2023-09-07T01:03:47;8.55;;;4.90;;
64633;SDS011;51043;52.406;9.690;2023-09-07T01:06:17;6.88;;;4.28;;
64633;SDS011;51043;52.406;9.690;2023-09-07T01:08:54;7.93;;;4.47;;
64633;SDS011;51043;52.406;9.690;2023-09-07T01:11:25;9.95;;;4.78;;
64633;SDS011;51043;52.406;9.690;2023-09-07T01:13:54;8.27;;;4.82;;
64633;SDS011;51043;52.406;9.690;2023-09-07T01:16:24;8.95;;;4.50;;
64633;SDS011;51043;52.406;9.690;2023-09-07T01:18:54;10.88;;;5.07;;
64633;SDS011;51043;52.406;9.690;2023-09-07T01:21:23;6.43;;;4.75;;
64633;SDS011;51043;52.406;9.690;2023-09-07T01:23:54;8.73;;;4.53;;
64633;SDS011;51043;52.406;9.690;2023-09-07T01:26:24;9.05;;;4.75;;
64633;SDS011;51043;52.406;9.690;2023-09-07T01:28:54;12.82;;;5.03;;
64633;SDS011;51043;52.406;9.690;2023-09-07T01:31:23;8.52;;;4.47;;
64633;SDS011;51043;52.406;9.690;2023-09-07T01:33:51;8.68;;;4.88;;
64633;SDS011;51043;52.406;9.690;2023-09-07T01:36:20;8.00;;;4.60;;
64633;SDS011;51043;52.406;9.690;2023-09-07T01:38:49;8.32;;;4.75;;
64633;SDS011;51043;52.406;9.690;2023-09-07T01:41:20;11.23;;;4.90;;
64633;SDS011;51043;52.406;9.690;2023-09-07T01:43:49;12.25;;;4.72;;
64633;SDS011;51043;52.406;9.690;2023-09-07T01:46:19;7.10;;;5.00;;
64633;SDS011;51043;52.406;9.690;2023-09-07T01:48:47;8.68;;;4.60;;
64633;SDS011;51043;52.406;9.690;2023-09-07T01:51:15;8.85;;;4.60;;
64633;SDS011;51043;52.406;9.690;2023-09-07T01:53:46;7.68;;;4.38;;
64633;SDS011;51043;52.406;9.690;2023-09-07T01:56:15;10.05;;;4.75;;
64633;SDS011;51043;52.406;9.690;2023-09-07T01:58:46;8.38;;;5.10;;
64633;SDS011;51043;52.406;9.690;2023-09-07T02:01:25;7.65;;;4.85;;
64633;SDS011;51043;52.406;9.690;2023-09-07T02:03:56;6.82;;;4.57;;
64633;SDS011;51043;52.406;9.690;2023-09-07T02:06:24;9.35;;;4.88;;
64633;SDS011;51043;52.406;9.690;2023-09-07T02:09:01;8.98;;;4.72;;
64633;SDS011;51043;52.406;9.690;2023-09-07T02:11:30;9.75;;;5.00;;
64633;SDS011;51043;52.406;9.690;2023-09-07T02:14:00;8.95;;;4.57;;
64633;SDS011;51043;52.406;9.690;2023-09-07T02:16:29;9.95;;;4.82;;
64633;SDS011;51043;52.406;9.690;2023-09-07T02:19:00;7.80;;;5.10;;
64633;SDS011;51043;52.406;9.690;2023-09-07T02:21:31;10.30;;;4.72;;
64633;SDS011;51043;52.406;9.690;2023-09-07T02:23:59;8.23;;;4.78;;
64633;SDS011;51043;52.406;9.690;2023-09-07T02:26:31;15.32;;;5.30;;
64633;SDS011;51043;52.406;9.690;2023-09-07T02:29:06;12.70;;;5.15;;
64633;SDS011;51043;52.406;9.690;2023-09-07T02:31:35;9.57;;;4.90;;
64633;SDS011;51043;52.406;9.690;2023-09-07T02:34:03;8.55;;;5.30;;
64633;SDS011;51043;52.406;9.690;2023-09-07T02:36:33;9.48;;;5.13;;
64633;SDS011;51043;52.406;9.690;2023-09-07T02:39:05;10.48;;;5.20;;
64633;SDS011;51043;52.406;9.690;2023-09-07T02:41:35;7.15;;;5.03;;
64633;SDS011;51043;52.406;9.690;2023-09-07T02:44:03;7.53;;;5.30;;
64633;SDS011;51043;52.406;9.690;2023-09-07T02:46:36;7.88;;;5.35;;
64633;SDS011;51043;52.406;9.690;2023-09-07T02:49:14;5.75;;;5.20;;
64633;SDS011;51043;52.406;9.690;2023-09-07T02:51:43;12.10;;;5.35;;
64633;SDS011;51043;52.406;9.690;2023-09-07T02:54:11;9.68;;;5.13;;
64633;SDS011;51043;52.406;9.690;2023-09-07T02:56:40;7.95;;;5.35;;
64633;SDS011;51043;52.406;9.690;2023-09-07T02:59:16;12.30;;;5.85;;
64633;SDS011;51043;52.406;9.690;2023-09-07T03:01:46;8.45;;;5.95;;
64633;SDS011;51043;52.406;9.690;2023-09-07T03:04:14;7.40;;;5.50;;
64633;SDS011;51043;52.406;9.690;2023-09-07T03:06:43;6.75;;;5.13;;
64633;SDS011;51043;52.406;9.690;2023-09-07T03:09:13;12.07;;;5.80;;
64633;SDS011;51043;52.406;9.690;2023-09-07T03:11:44;10.75;;;5.65;;
64633;SDS011;51043;52.406;9.690;2023-09-07T03:14:13;13.50;;;5.78;;
64633;SDS011;51043;52.406;9.690;2023-09-07T03:16:48;12.50;;;5.95;;
64633;SDS011;51043;52.406;9.690;2023-09-07T03:19:17;7.70;;;5.50;;
64633;SDS011;51043;52.406;9.690;2023-09-07T03:21:46;9.70;;;5.75;;
64633;SDS011;51043;52.406;9.690;2023-09-07T03:24:16;11.65;;;6.22;;
64633;SDS011;51043;52.406;9.690;2023-09-07T03:26:48;9.82;;;5.80;;
64633;SDS011;51043;52.406;9.690;2023-09-07T03:29:18;10.18;;;6.35;;
64633;SDS011;51043;52.406;9.690;2023-09-07T03:31:50;10.27;;;5.95;;
64633;SDS011;51043;52.406;9.690;2023-09-07T03:34:18;11.13;;;6.20;;
64633;SDS011;51043;52.406;9.690;2023-09-07T03:36:56;11.57;;;5.82;;
64633;SDS011;51043;52.406;9.690;2023-09-07T03:39:25;11.10;;;6.10;;
64633;SDS011;51043;52.406;9.690;2023-09-07T03:41:53;9.48;;;5.82;;
64633;SDS011;51043;52.406;9.690;2023-09-07T03:44:24;8.35;;;6.03;;
64633;SDS011;51043;52.406;9.690;2023-09-07T03:46:54;14.05;;;6.72;;
64633;SDS011;51043;52.406;9.690;2023-09-07T03:49:22;16.75;;;6.68;;
64633;SDS011;51043;52.406;9.690;2023-09-07T03:51:52;10.38;;;6.13;;
64633;SDS011;51043;52.406;9.690;2023-09-07T03:54:23;11.48;;;5.43;;
64633;SDS011;51043;52.406;9.690;2023-09-07T03:56:51;12.68;;;6.60;;
64633;SDS011;51043;52.406;9.690;2023-09-07T03:59:28;10.52;;;6.05;;
64633;SDS011;51043;52.406;9.690;2023-09-07T04:02:01;9.95;;;5.80;;
64633;SDS011;51043;52.406;9.690;2023-09-07T04:04:30;9.25;;;6.05;;
64633;SDS011;51043;52.406;9.690;2023-09-07T04:06:58;9.00;;;6.57;;
64633;SDS011;51043;52.406;9.690;2023-09-07T04:09:30;9.68;;;6.28;;
64633;SDS011;51043;52.406;9.690;2023-09-07T04:11:59;9.50;;;6.20;;
64633;SDS011;51043;52.406;9.690;2023-09-07T04:14:30;10.77;;;6.30;;
64633;SDS011;51043;52.406;9.690;2023-09-07T04:16:58;8.98;;;6.50;;
64633;SDS011;51043;52.406;9.690;2023-09-07T04:19:28;9.98;;;6.72;;
64633;SDS011;51043;52.406;9.690;2023-09-07T04:21:57;9.43;;;6.28;;
64633;SDS011;51043;52.406;9.690;2023-09-07T04:24:26;8.27;;;6.45;;
64633;SDS011;51043;52.406;9.690;2023-09-07T04:26:57;11.63;;;6.57;;
64633;SDS011;51043;52.406;9.690;2023-09-07T04:29:27;13.18;;;7.20;;
64633;SDS011;51043;52.406;9.690;2023-09-07T04:31:56;17.33;;;8.02;;
64633;SDS011;51043;52.406;9.690;2023-09-07T04:34:25;11.98;;;7.03;;
64633;SDS011;51043;52.406;9.690;2023-09-07T04:36:55;10.10;;;7.00;;
64633;SDS011;51043;52.406;9.690;2023-09-07T04:39:24;16.33;;;7.00;;
64633;SDS011;51043;52.406;9.690;2023-09-07T04:41:53;16.80;;;7.55;;
64633;SDS011;51043;52.406;9.690;2023-09-07T04:44:21;11.23;;;7.10;;
64633;SDS011;51043;52.406;9.690;2023-09-07T04:46:49;22.27;;;7.70;;
64633;SDS011;51043;52.406;9.690;2023-09-07T04:49:19;15.55;;;6.82;;
64633;SDS011;51043;52.406;9.690;2023-09-07T04:51:47;10.75;;;7.60;;
64633;SDS011;51043;52.406;9.690;2023-09-07T04:54:18;20.52;;;7.80;;
64633;SDS011;51043;52.406;9.690;2023-09-07T04:56:50;12.87;;;7.43;;
64633;SDS011;51043;52.406;9.690;2023-09-07T04:59:20;11.60;;;7.72;;
64633;SDS011;51043;52.406;9.690;2023-09-07T05:01:48;13.63;;;7.30;;
64633;SDS011;51043;52.406;9.690;2023-09-07T05:04:18;9.23;;;7.30;;
64633;SDS011;51043;52.406;9.690;2023-09-07T05:06:49;16.90;;;8.38;;
64633;SDS011;51043;52.406;9.690;2023-09-07T05:09:21;16.00;;;8.87;;
64633;SDS011;51043;52.406;9.690;2023-09-07T05:11:50;17.77;;;7.90;;
64633;SDS011;51043;52.406;9.690;2023-09-07T05:14:23;10.43;;;7.68;;
64633;SDS011;51043;52.406;9.690;2023-09-07T05:16:56;19.38;;;7.80;;
64633;SDS011;51043;52.406;9.690;2023-09-07T05:19:25;12.73;;;8.38;;
64633;SDS011;51043;52.406;9.690;2023-09-07T05:21:53;15.25;;;7.00;;
64633;SDS011;51043;52.406;9.690;2023-09-07T05:24:27;24.80;;;8.20;;
64633;SDS011;51043;52.406;9.690;2023-09-07T05:26:55;18.35;;;8.13;;
64633;SDS011;51043;52.406;9.690;2023-09-07T05:29:24;31.10;;;9.07;;
64633;SDS011;51043;52.406;9.690;2023-09-07T05:31:55;20.27;;;7.53;;
64633;SDS011;51043;52.406;9.690;2023-09-07T05:34:29;20.13;;;7.90;;
64633;SDS011;51043;52.406;9.690;2023-09-07T05:36:59;20.70;;;7.70;;
64633;SDS011;51043;52.406;9.690;2023-09-07T05:39:29;20.90;;;7.68;;
64633;SDS011;51043;52.406;9.690;2023-09-07T05:41:58;21.35;;;7.57;;
64633;SDS011;51043;52.406;9.690;2023-09-07T05:44:28;29.83;;;8.68;;
64633;SDS011;51043;52.406;9.690;2023-09-07T05:47:00;22.77;;;7.60;;
64633;SDS011;51043;52.406;9.690;2023-09-07T05:49:29;29.25;;;8.05;;
64633;SDS011;51043;52.406;9.690;2023-09-07T05:52:00;22.05;;;7.55;;
64633;SDS011;51043;52.406;9.690;2023-09-07T05:54:38;31.50;;;7.47;;
64633;SDS011;51043;52.406;9.690;2023-09-07T05:57:35;21.23;;;7.68;;
64633;SDS011;51043;52.406;9.690;2023-09-07T06:00:06;20.63;;;7.57;;
64633;SDS011;51043;52.406;9.690;2023-09-07T06:02:38;31.98;;;8.00;;
64633;SDS011;51043;52.406;9.690;2023-09-07T06:05:10;19.92;;;7.30;;
64633;SDS011;51043;52.406;9.690;2023-09-07T06:07:38;16.95;;;6.82;;
64633;SDS011;51043;52.406;9.690;2023-09-07T06:10:12;23.73;;;7.28;;
64633;SDS011;51043;52.406;9.690;2023-09-07T06:12:41;20.92;;;7.30;;
64633;SDS011;51043;52.406;9.690;2023-09-07T06:15:10;13.02;;;6.93;;
64633;SDS011;51043;52.406;9.690;2023-09-07T06:17:40;20.75;;;6.57;;
64633;SDS011;51043;52.406;9.690;2023-09-07T06:20:10;21.63;;;6.80;;
64633;SDS011;51043;52.406;9.690;2023-09-07T06:22:39;16.67;;;6.88;;
64633;SDS011;51043;52.406;9.690;2023-09-07T06:25:08;28.10;;;6.95;;
64633;SDS011;51043;52.406;9.690;2023-09-07T06:27:46;12.95;;;6.68;;
64633;SDS011;51043;52.406;9.690;2023-09-07T06:30:20;15.07;;;6.20;;
64633;SDS011;51043;52.406;9.690;2023-09-07T06:32:50;17.90;;;6.65;;
64633;SDS011;51043;52.406;9.690;2023-09-07T06:35:20;15.25;;;6.85;;
64633;SDS011;51043;52.406;9.690;2023-09-07T06:37:51;25.25;;;7.25;;
64633;SDS011;51043;52.406;9.690;2023-09-07T06:40:23;15.90;;;7.10;;
64633;SDS011;51043;52.406;9.690;2023-09-07T06:42:57;16.35;;;6.72;;
64633;SDS011;51043;52.406;9.690;2023-09-07T06:45:26;16.63;;;6.50;;
64633;SDS011;51043;52.406;9.690;2023-09-07T06:47:56;10.88;;;6.18;;
64633;SDS011;51043;52.406;9.690;2023-09-07T06:50:25;14.82;;;6.55;;
64633;SDS011;51043;52.406;9.690;2023-09-07T06:52:57;27.13;;;6.05;;
64633;SDS011;51043;52.406;9.690;2023-09-07T06:55:26;15.82;;;6.40;;
64633;SDS011;51043;52.406;9.690;2023-09-07T06:57:57;24.02;;;6.03;;
64633;SDS011;51043;52.406;9.690;2023-09-07T07:00:29;20.48;;;6.60;;
64633;SDS011;51043;52.406;9.690;2023-09-07T07:02:58;12.32;;;5.75;;
64633;SDS011;51043;52.406;9.690;2023-09-07T07:05:28;21.05;;;6.40;;
64633;SDS011;51043;52.406;9.690;2023-09-07T07:08:00;20.75;;;6.60;;
64633;SDS011;51043;52.406;9.690;2023-09-07T07:10:30;15.75;;;6.05;;
64633;SDS011;51043;52.406;9.690;2023-09-07T07:13:01;22.75;;;5.82;;
64633;SDS011;51043;52.406;9.690;2023-09-07T07:15:30;18.35;;;5.63;;
64633;SDS011;51043;52.406;9.690;2023-09-07T07:18:16;13.18;;;5.22;;
64633;SDS011;51043;52.406;9.690;2023-09-07T07:20:49;15.32;;;5.63;;
64633;SDS011;51043;52.406;9.690;2023-09-07T07:23:20;17.23;;;5.47;;
64633;SDS011;51043;52.406;9.690;2023-09-07T07:25:49;11.57;;;5.05;;
64633;SDS011;51043;52.406;9.690;2023-09-07T07:28:19;18.38;;;4.85;;
64633;SDS011;51043;52.406;9.690;2023-09-07T07:30:47;12.00;;;4.82;;
64633;SDS011;51043;52.406;9.690;2023-09-07T07:33:19;11.63;;;4.50;;
64633;SDS011;51043;52.406;9.690;2023-09-07T07:35:50;12.48;;;4.72;;
64633;SDS011;51043;52.406;9.690;2023-09-07T07:38:19;10.77;;;4.60;;
64633;SDS011;51043;52.406;9.690;2023-09-07T07:40:48;11.45;;;4.38;;
64633;SDS011;51043;52.406;9.690;2023-09-07T07:43:18;9.02;;;4.30;;
64633;SDS011;51043;52.406;9.690;2023-09-07T07:45:48;9.07;;;4.47;;
64633;SDS011;51043;52.406;9.690;2023-09-07T07:48:17;9.23;;;4.15;;
64633;SDS011;51043;52.406;9.690;2023-09-07T07:50:50;17.25;;;4.85;;
64633;SDS011;51043;52.406;9.690;2023-09-07T07:53:19;10.95;;;4.07;;
64633;SDS011;51043;52.406;9.690;2023-09-07T07:55:48;8.55;;;4.10;;
64633;SDS011;51043;52.406;9.690;2023-09-07T07:58:22;11.43;;;4.20;;
64633;SDS011;51043;52.406;9.690;2023-09-07T08:00:51;17.98;;;4.00;;
64633;SDS011;51043;52.406;9.690;2023-09-07T08:03:25;10.38;;;3.65;;
64633;SDS011;51043;52.406;9.690;2023-09-07T08:06:02;9.77;;;4.03;;
64633;SDS011;51043;52.406;9.690;2023-09-07T08:08:33;8.00;;;3.72;;
64633;SDS011;51043;52.406;9.690;2023-09-07T08:11:03;15.95;;;3.80;;
64633;SDS011;51043;52.406;9.690;2023-09-07T08:13:37;14.77;;;4.18;;
64633;SDS011;51043;52.406;9.690;2023-09-07T08:16:08;6.63;;;3.78;;
64633;SDS011;51043;52.406;9.690;2023-09-07T08:18:40;13.52;;;3.97;;
64633;SDS011;51043;52.406;9.690;2023-09-07T08:21:16;10.45;;;4.00;;
64633;SDS011;51043;52.406;9.690;2023-09-07T08:23:51;12.65;;;3.75;;
64633;SDS011;51043;52.406;9.690;2023-09-07T08:26:23;12.90;;;3.83;;
64633;SDS011;51043;52.406;9.690;2023-09-07T08:28:53;17.30;;;4.28;;
64633;SDS011;51043;52.406;9.690;2023-09-07T08:31:21;16.08;;;3.85;;
64633;SDS011;51043;52.406;9.690;2023-09-07T08:33:50;14.50;;;3.55;;
64633;SDS011;51043;52.406;9.690;2023-09-07T08:36:18;7.28;;;3.35;;
64633;SDS011;51043;52.406;9.690;2023-09-07T08:38:53;6.82;;;3.47;;
64633;SDS011;51043;52.406;9.690;2023-09-07T08:41:23;9.88;;;3.70;;
64633;SDS011;51043;52.406;9.690;2023-09-07T08:43:54;12.60;;;3.30;;
64633;SDS011;51043;52.406;9.690;2023-09-07T08:46:25;11.43;;;3.78;;
64633;SDS011;51043;52.406;9.690;2023-09-07T08:48:57;12.38;;;3.33;;
64633;SDS011;51043;52.406;9.690;2023-09-07T08:51:30;7.28;;;3.35;;
64633;SDS011;51043;52.406;9.690;2023-09-07T08:53:59;9.43;;;3.40;;
64633;SDS011;51043;52.406;9.690;2023-09-07T08:56:33;9.35;;;3.40;;
64633;SDS011;51043;52.406;9.690;2023-09-07T08:59:03;8.05;;;3.58;;
64633;SDS011;51043;52.406;9.690;2023-09-07T09:01:34;11.65;;;3.42;;
64633;SDS011;51043;52.406;9.690;2023-09-07T09:04:04;12.88;;;3.63;;
64633;SDS011;51043;52.406;9.690;2023-09-07T09:06:33;10.30;;;3.65;;
64633;SDS011;51043;52.406;9.690;2023-09-07T09:09:01;19.98;;;3.78;;
64633;SDS011;51043;52.406;9.690;2023-09-07T09:11:31;11.18;;;3.53;;
64633;SDS011;51043;52.406;9.690;2023-09-07T09:14:04;16.30;;;3.85;;
64633;SDS011;51043;52.406;9.690;2023-09-07T09:16:35;8.25;;;3.50;;
64633;SDS011;51043;52.406;9.690;2023-09-07T09:19:04;8.38;;;3.75;;
64633;SDS011;51043;52.406;9.690;2023-09-07T09:21:33;8.98;;;3.80;;
64633;SDS011;51043;52.406;9.690;2023-09-07T09:24:03;9.13;;;3.58;;
64633;SDS011;51043;52.406;9.690;2023-09-07T09:26:38;13.70;;;3.90;;
64633;SDS011;51043;52.406;9.690;2023-09-07T09:29:12;10.20;;;3.53;;
64633;SDS011;51043;52.406;9.690;2023-09-07T09:31:43;11.80;;;3.53;;
64633;SDS011;51043;52.406;9.690;2023-09-07T09:34:14;7.50;;;3.75;;
64633;SDS011;51043;52.406;9.690;2023-09-07T09:36:43;9.27;;;3.42;;
64633;SDS011;51043;52.406;9.690;2023-09-07T09:39:24;12.20;;;3.35;;
64633;SDS011;51043;52.406;9.690;2023-09-07T09:41:53;10.82;;;3.85;;
64633;SDS011;51043;52.406;9.690;2023-09-07T09:44:23;9.85;;;4.00;;
64633;SDS011;51043;52.406;9.690;2023-09-07T09:46:55;10.48;;;3.50;;
64633;SDS011;51043;52.406;9.690;2023-09-07T09:49:25;16.30;;;3.63;;
64633;SDS011;51043;52.406;9.690;2023-09-07T09:51:55;10.65;;;3.78;;
64633;SDS011;51043;52.406;9.690;2023-09-07T09:54:25;9.13;;;3.53;;
64633;SDS011;51043;52.406;9.690;2023-09-07T09:56:55;14.23;;;3.42;;
64633;SDS011;51043;52.406;9.690;2023-09-07T09:59:25;11.68;;;3.85;;
64633;SDS011;51043;52.406;9.690;2023-09-07T10:01:56;12.55;;;3.83;;
64633;SDS011;51043;52.406;9.690;2023-09-07T10:04:27;15.40;;;4.28;;
64633;SDS011;51043;52.406;9.690;2023-09-07T10:07:03;8.25;;;3.55;;
64633;SDS011;51043;52.406;9.690;2023-09-07T10:09:34;10.95;;;3.58;;
64633;SDS011;51043;52.406;9.690;2023-09-07T10:12:04;9.77;;;3.45;;
64633;SDS011;51043;52.406;9.690;2023-09-07T10:14:39;9.73;;;3.50;;
64633;SDS011;51043;52.406;9.690;2023-09-07T10:17:20;10.50;;;3.78;;
64633;SDS011;51043;52.406;9.690;2023-09-07T10:20:01;8.60;;;3.80;;
64633;SDS011;51043;52.406;9.690;2023-09-07T10:22:33;10.70;;;3.33;;
64633;SDS011;51043;52.406;9.690;2023-09-07T10:25:01;10.95;;;3.50;;
64633;SDS011;51043;52.406;9.690;2023-09-07T10:27:37;11.90;;;3.67;;
64633;SDS011;51043;52.406;9.690;2023-09-07T10:30:11;7.55;;;3.28;;
64633;SDS011;51043;52.406;9.690;2023-09-07T10:32:43;9.23;;;3.15;;
64633;SDS011;51043;52.406;9.690;2023-09-07T10:35:15;6.00;;;3.30;;
64633;SDS011;51043;52.406;9.690;2023-09-07T10:37:54;5.78;;;2.83;;
64633;SDS011;51043;52.406;9.690;2023-09-07T10:40:30;7.15;;;3.20;;
64633;SDS011;51043;52.406;9.690;2023-09-07T10:43:03;8.38;;;3.30;;
64633;SDS011;51043;52.406;9.690;2023-09-07T10:45:32;7.03;;;3.30;;
64633;SDS011;51043;52.406;9.690;2023-09-07T10:48:05;13.45;;;3.47;;
64633;SDS011;51043;52.406;9.690;2023-09-07T10:50:42;24.95;;;7.40;;
64633;SDS011;51043;52.406;9.690;2023-09-07T10:53:12;9.23;;;3.92;;
64633;SDS011;51043;52.406;9.690;2023-09-07T10:55:41;12.25;;;3.38;;
64633;SDS011;51043;52.406;9.690;2023-09-07T10:58:10;11.60;;;3.20;;
64633;SDS011;51043;52.406;9.690;2023-09-07T11:00:47;13.52;;;2.92;;
64633;SDS011;51043;52.406;9.690;2023-09-07T11:03:19;8.23;;;3.63;;
64633;SDS011;51043;52.406;9.690;2023-09-07T11:05:47;7.20;;;3.03;;
64633;SDS011;51043;52.406;9.690;2023-09-07T11:08:19;9.77;;;3.30;;
64633;SDS011;51043;52.406;9.690;2023-09-07T11:10:49;8.07;;;3.15;;
64633;SDS011;51043;52.406;9.690;2023-09-07T11:13:21;7.75;;;3.00;;
64633;SDS011;51043;52.406;9.690;2023-09-07T11:15:54;14.10;;;3.40;;
64633;SDS011;51043;52.406;9.690;2023-09-07T11:18:24;4.97;;;3.33;;
64633;SDS011;51043;52.406;9.690;2023-09-07T11:20:53;4.57;;;2.85;;
64633;SDS011;51043;52.406;9.690;2023-09-07T11:23:21;12.02;;;2.90;;
64633;SDS011;51043;52.406;9.690;2023-09-07T11:25:50;6.35;;;3.03;;
64633;SDS011;51043;52.406;9.690;2023-09-07T11:28:19;9.60;;;3.53;;
64633;SDS011;51043;52.406;9.690;2023-09-07T11:30:51;6.18;;;3.38;;
64633;SDS011;51043;52.406;9.690;2023-09-07T11:33:22;6.70;;;3.30;;
64633;SDS011;51043;52.406;9.690;2023-09-07T11:35:51;8.20;;;2.85;;
64633;SDS011;51043;52.406;9.690;2023-09-07T11:38:22;5.90;;;3.00;;
64633;SDS011;51043;52.406;9.690;2023-09-07T11:40:51;5.28;;;3.22;;
64633;SDS011;51043;52.406;9.690;2023-09-07T11:43:19;10.32;;;3.08;;
64633;SDS011;51043;52.406;9.690;2023-09-07T11:45:49;5.47;;;3.22;;
64633;SDS011;51043;52.406;9.690;2023-09-07T11:48:20;7.35;;;3.08;;
64633;SDS011;51043;52.406;9.690;2023-09-07T11:50:52;7.88;;;3.25;;
64633;SDS011;51043;52.406;9.690;2023-09-07T11:53:20;10.07;;;3.20;;
64633;SDS011;51043;52.406;9.690;2023-09-07T11:55:49;4.70;;;2.90;;
64633;SDS011;51043;52.406;9.690;2023-09-07T11:58:24;11.30;;;2.90;;
64633;SDS011;51043;52.406;9.690;2023-09-07T12:00:54;9.02;;;3.10;;
64633;SDS011;51043;52.406;9.690;2023-09-07T12:03:23;6.65;;;3.05;;
64633;SDS011;51043;52.406;9.690;2023-09-07T12:05:53;10.18;;;3.03;;
64633;SDS011;51043;52.406;9.690;2023-09-07T12:08:24;7.13;;;2.80;;
64633;SDS011;51043;52.406;9.690;2023-09-07T12:10:52;8.98;;;3.00;;
64633;SDS011;51043;52.406;9.690;2023-09-07T12:13:23;9.50;;;3.15;;
64633;SDS011;51043;52.406;9.690;2023-09-07T12:15:53;7.53;;;2.95;;
64633;SDS011;51043;52.406;9.690;2023-09-07T12:18:24;7.97;;;3.25;;
64633;SDS011;51043;52.406;9.690;2023-09-07T12:20:57;4.40;;;2.80;;
64633;SDS011;51043;52.406;9.690;2023-09-07T12:23:26;7.00;;;3.00;;
64633;SDS011;51043;52.406;9.690;2023-09-07T12:25:55;6.90;;;2.92;;
64633;SDS011;51043;52.406;9.690;2023-09-07T12:28:29;6.85;;;2.90;;
64633;SDS011;51043;52.406;9.690;2023-09-07T12:30:58;7.93;;;2.80;;
64633;SDS011;51043;52.406;9.690;2023-09-07T12:33:27;13.57;;;2.85;;
64633;SDS011;51043;52.406;9.690;2023-09-07T12:35:58;9.18;;;3.03;;
64633;SDS011;51043;52.406;9.690;2023-09-07T12:38:30;8.63;;;3.05;;
64633;SDS011;51043;52.406;9.690;2023-09-07T12:40:59;4.50;;;2.85;;
64633;SDS011;51043;52.406;9.690;2023-09-07T12:43:29;7.95;;;3.47;;
64633;SDS011;51043;52.406;9.690;2023-09-07T12:45:59;7.00;;;3.10;;
64633;SDS011;51043;52.406;9.690;2023-09-07T12:48:30;8.23;;;3.05;;
64633;SDS011;51043;52.406;9.690;2023-09-07T12:51:15;5.15;;;2.92;;
64633;SDS011;51043;52.406;9.690;2023-09-07T12:53:44;8.02;;;3.50;;
64633;SDS011;51043;52.406;9.690;2023-09-07T12:56:12;8.32;;;3.17;;
64633;SDS011;51043;52.406;9.690;2023-09-07T12:58:42;4.72;;;3.00;;
64633;SDS011;51043;52.406;9.690;2023-09-07T13:01:13;6.47;;;3.20;;
64633;SDS011;51043;52.406;9.690;2023-09-07T13:03:43;10.38;;;3.15;;
64633;SDS011;51043;52.406;9.690;2023-09-07T13:06:12;8.80;;;3.10;;
64633;SDS011;51043;52.406;9.690;2023-09-07T13:08:42;11.90;;;3.60;;
64633;SDS011;51043;52.406;9.690;2023-09-07T13:11:11;9.18;;;3.20;;
64633;SDS011;51043;52.406;9.690;2023-09-07T13:13:40;9.27;;;3.20;;
64633;SDS011;51043;52.406;9.690;2023-09-07T13:16:08;11.23;;;3.13;;
64633;SDS011;51043;52.406;9.690;2023-09-07T13:18:40;6.90;;;3.22;;
64633;SDS011;51043;52.406;9.690;2023-09-07T13:21:09;3.33;;;2.92;;
64633;SDS011;51043;52.406;9.690;2023-09-07T13:23:38;20.40;;;3.42;;
64633;SDS011;51043;52.406;9.690;2023-09-07T13:26:12;9.68;;;3.25;;
64633;SDS011;51043;52.406;9.690;2023-09-07T13:28:41;5.45;;;3.03;;
64633;SDS011;51043;52.406;9.690;2023-09-07T13:31:10;6.28;;;3.00;;
64633;SDS011;51043;52.406;9.690;2023-09-07T13:33:39;9.43;;;3.25;;
64633;SDS011;51043;52.406;9.690;2023-09-07T13:36:08;3.55;;;2.75;;
64633;SDS011;51043;52.406;9.690;2023-09-07T13:38:39;8.00;;;3.22;;
64633;SDS011;51043;52.406;9.690;2023-09-07T13:41:14;6.32;;;3.13;;
64633;SDS011;51043;52.406;9.690;2023-09-07T13:43:45;7.22;;;2.90;;
64633;SDS011;51043;52.406;9.690;2023-09-07T13:46:13;3.92;;;3.08;;
64633;SDS011;51043;52.406;9.690;2023-09-07T13:48:45;5.43;;;2.88;;
64633;SDS011;51043;52.406;9.690;2023-09-07T13:51:13;7.90;;;2.90;;
64633;SDS011;51043;52.406;9.690;2023-09-07T13:53:46;4.85;;;2.90;;
64633;SDS011;51043;52.406;9.690;2023-09-07T13:56:18;8.48;;;3.00;;
64633;SDS011;51043;52.406;9.690;2023-09-07T13:58:47;6.13;;;3.55;;
64633;SDS011;51043;52.406;9.690;2023-09-07T14:01:15;7.13;;;2.90;;
64633;SDS011;51043;52.406;9.690;2023-09-07T14:03:44;6.65;;;3.03;;
64633;SDS011;51043;52.406;9.690;2023-09-07T14:06:13;4.70;;;2.90;;
64633;SDS011;51043;52.406;9.690;2023-09-07T14:08:44;14.25;;;3.10;;
64633;SDS011;51043;52.406;9.690;2023-09-07T14:11:13;7.53;;;3.10;;
64633;SDS011;51043;52.406;9.690;2023-09-07T14:13:44;7.72;;;3.10;;
64633;SDS011;51043;52.406;9.690;2023-09-07T14:16:20;5.68;;;3.05;;
64633;SDS011;51043;52.406;9.690;2023-09-07T14:18:49;7.50;;;3.08;;
64633;SDS011;51043;52.406;9.690;2023-09-07T14:21:19;4.25;;;2.80;;
64633;SDS011;51043;52.406;9.690;2023-09-07T14:23:48;9.07;;;2.88;;
64633;SDS011;51043;52.406;9.690;2023-09-07T14:26:17;6.90;;;3.15;;
64633;SDS011;51043;52.406;9.690;2023-09-07T14:28:47;9.40;;;3.08;;
64633;SDS011;51043;52.406;9.690;2023-09-07T14:31:15;4.82;;;3.05;;
64633;SDS011;51043;52.406;9.690;2023-09-07T14:33:43;3.63;;;2.83;;
64633;SDS011;51043;52.406;9.690;2023-09-07T14:36:11;11.05;;;3.40;;
64633;SDS011;51043;52.406;9.690;2023-09-07T14:38:40;5.80;;;3.40;;
64633;SDS011;51043;52.406;9.690;2023-09-07T14:41:10;3.65;;;2.88;;
64633;SDS011;51043;52.406;9.690;2023-09-07T14:43:46;8.45;;;3.00;;
64633;SDS011;51043;52.406;9.690;2023-09-07T14:46:15;4.88;;;3.20;;
64633;SDS011;51043;52.406;9.690;2023-09-07T14:48:43;6.05;;;3.17;;
64633;SDS011;51043;52.406;9.690;2023-09-07T14:51:14;7.10;;;3.20;;
64633;SDS011;51043;52.406;9.690;2023-09-07T14:53:43;7.15;;;2.97;;
64633;SDS011;51043;52.406;9.690;2023-09-07T14:56:11;7.57;;;2.95;;
64633;SDS011;51043;52.406;9.690;2023-09-07T14:58:40;6.00;;;2.80;;
64633;SDS011;51043;52.406;9.690;2023-09-07T15:01:10;6.22;;;3.42;;